FranceFixed distance
Luchon Aneto Trail - L'Ultra Lat
5–6 Jul2025
Distance
85km
Finishers
247220 men27 women
Winning time
9:42:00h
Median pace
5.48km/h
Pace distribution
247 finishers · 4.35–8.76 km/h · mean 5.62
Every finisher ran the same 85 km course, so these paces are directly comparable.
Histogram of finisher pace. 247 finishers ranged from 4.35 to 8.76 kilometres per hour, with a mean of 5.62 and a median of 5.48. The busiest band is 5.0 to 5.5 kilometres per hour, with 68 finishers.
Results
Ranks 1–50 of 247
| Rank | Runner | Time | Pace | Cat. | Placing |
|---|---|---|---|---|---|
| 1 | Lurbel France | 9:42:00h | 8.76 | M23 | 1st M · 1st M23 |
| 2 | Esclops D'Azun | 10:09:32h | 8.37 | M23 | 2nd M · 2nd M23 |
| 3 | Anaitasuna M.B. | 10:36:34h | 8.01 | M40 | 3rd M · 1st M40 |
| 4 | Team Pacte des Loups | 10:45:41h | 7.90 | M40 | 4th M · 2nd M40 |
| 5 | TUC & CAF | 10:56:57h | 7.76 | M23 | 5th M · 3rd M23 |
| 6 | Trégor Goelo Athlétism... | 11:00:53h | 7.72 | M45 | 6th M · 1st M45 |
| 7 | *Moumour | 11:01:50h | 7.71 | M23 | 7th M · 4th M23 |
| 8 | Altitude 3404 | 11:07:43h | 7.64 | M23 | 8th M · 5th M23 |
| 9 | *Rabastens | 11:16:33h | 7.54 | M40 | 9th M · 3rd M40 |
| 10 | *Gratentour | 11:18:54h | 7.51 | M23 | 10th M · 6th M23 |
| 11 | CA Villenave D'Ornon | 11:26:29h | 7.43 | W23 | 1st F · 1st W23 |
| 12 | Oloron'Run | 11:48:03h | 7.20 | M23 | 11th M · 7th M23 |
| 13 | Endurance65 | 11:51:30h | 7.17 | M35 | 12th M · 1st M35 |
| 14 | CAF Toulouse | 11:52:04h | 7.16 | M35 | 13th M · 2nd M35 |
| 15 | *Dijon | 11:55:56h | 7.12 | M23 | 14th M · 8th M23 |
| 16 | Safran Fougères | 12:01:32h | 7.07 | M35 | 15th M · 3rd M35 |
| 17 | CA Beglais | 12:02:32h | 7.06 | M45 | 16th M · 2nd M45 |
| 18 | *Nantes | 12:08:31h | 7.00 | M35 | 17th M · 4th M35 |
| 19 | Gourdan Polignan Commi... | 12:14:50h | 6.94 | M40 | 18th M · 4th M40 |
| 20 | *Montpon-Menestérol | 12:18:08h | 6.91 | M35 | 19th M · 5th M35 |
| 21 | *Villebrumier | 12:23:24h | 6.86 | M23 | 20th M · 9th M23 |
| 22 | les Coureurs du Joos | 12:25:28h | 6.84 | M35 | 21st M · 6th M35 |
| 23 | *Boulogne-Billancourt | 12:27:46h | 6.82 | M23 | 22nd M · 10th M23 |
| 24 | CAV | 12:27:55h | 6.82 | M23 | 23rd M · 11th M23 |
| 25 | *La Brede | 12:30:14h | 6.80 | M35 | 24th M · 7th M35 |
| 26 | *Guignen | 12:32:03h | 6.78 | M35 | 25th M · 8th M35 |
| 27 | les Pattes Carbo | 12:32:51h | 6.77 | M40 | 26th M · 5th M40 |
| 28 | *Artigueloutan | 12:48:58h | 6.63 | M23 | 27th M · 12th M23 |
| 29 | Extrapédestres | 12:50:49h | 6.62 | M40 | 28th M · 6th M40 |
| 30 | SOC | 12:53:42h | 6.59 | W23 | 2nd F · 2nd W23 |
| 31 | Entente Athlétique Sai... | 12:59:24h | 6.54 | M35 | 29th M · 9th M35 |
| 32 | *Arthez D Asson | 13:00:34h | 6.53 | M40 | 30th M · 7th M40 |
| 33 | *Pau | 13:07:28h | 6.48 | M35 | 31st M · 10th M35 |
| 34 | *Gujan-Mestras | 13:10:33h | 6.45 | W40 | 3rd F · 1st W40 |
| 35 | Krunners | 13:10:57h | 6.45 | M45 | 32nd M · 3rd M45 |
| 36 | *La Salvetat Saint Gilles | 13:12:23h | 6.44 | M23 | 33rd M · 13th M23 |
| 37 | *Beaudean | 13:12:28h | 6.44 | M23 | 34th M · 14th M23 |
| 38 | *Lille | 13:14:19h | 6.42 | M45 | 35th M · 4th M45 |
| 39 | *Cestas | 13:15:40h | 6.41 | M35 | 36th M · 11th M35 |
| 40 | FFR - FTR - Terre de R... | 13:16:13h | 6.41 | W23 | 4th F · 3rd W23 |
| 41 | Sara Korrika | 13:23:54h | 6.34 | M23 | 37th M · 15th M23 |
| 42 | *Bayonne | 13:26:00h | 6.33 | — | 38th M |
| 43 | *Montpellier | 13:30:48h | 6.29 | M23 | 39th M · 16th M23 |
| 44 | Avab TTT | 13:30:51h | 6.29 | M40 | 40th M · 8th M40 |
| 44 | *Toulouse | 13:30:51h | 6.29 | M35 | 40th M · 12th M35 |
| 46 | *St Jean Du Castillonais | 13:31:05h | 6.29 | M60 | 42nd M · 1st M60 |
| 47 | Carcassonne Trail Club | 13:35:21h | 6.25 | M35 | 43rd M · 13th M35 |
| 47 | XL Raid | 13:35:21h | 6.25 | M45 | 43rd M · 5th M45 |
| 49 | *Latoue | 13:35:22h | 6.25 | M40 | 45th M · 9th M40 |
| 50 | Rrunning Saint Paul le... | 13:35:25h | 6.25 | M40 | 46th M · 10th M40 |
- 1Lurbel France1st M · 1st M23Time9:42:00hPace8.76Cat.M23
- 2Esclops D'Azun2nd M · 2nd M23Time10:09:32hPace8.37Cat.M23
- 3Anaitasuna M.B.3rd M · 1st M40Time10:36:34hPace8.01Cat.M40
- 4Team Pacte des Loups4th M · 2nd M40Time10:45:41hPace7.90Cat.M40
- 5TUC & CAF5th M · 3rd M23Time10:56:57hPace7.76Cat.M23
- 6Trégor Goelo Athlétism...6th M · 1st M45Time11:00:53hPace7.72Cat.M45
- 7*Moumour7th M · 4th M23Time11:01:50hPace7.71Cat.M23
- 8Altitude 34048th M · 5th M23Time11:07:43hPace7.64Cat.M23
- 9*Rabastens9th M · 3rd M40Time11:16:33hPace7.54Cat.M40
- 10*Gratentour10th M · 6th M23Time11:18:54hPace7.51Cat.M23
- 11CA Villenave D'Ornon1st F · 1st W23Time11:26:29hPace7.43Cat.W23
- 12Oloron'Run11th M · 7th M23Time11:48:03hPace7.20Cat.M23
- 13Endurance6512th M · 1st M35Time11:51:30hPace7.17Cat.M35
- 14CAF Toulouse13th M · 2nd M35Time11:52:04hPace7.16Cat.M35
- 15*Dijon14th M · 8th M23Time11:55:56hPace7.12Cat.M23
- 16Safran Fougères15th M · 3rd M35Time12:01:32hPace7.07Cat.M35
- 17CA Beglais16th M · 2nd M45Time12:02:32hPace7.06Cat.M45
- 18*Nantes17th M · 4th M35Time12:08:31hPace7.00Cat.M35
- 19Gourdan Polignan Commi...18th M · 4th M40Time12:14:50hPace6.94Cat.M40
- 20*Montpon-Menestérol19th M · 5th M35Time12:18:08hPace6.91Cat.M35
- 21*Villebrumier20th M · 9th M23Time12:23:24hPace6.86Cat.M23
- 22les Coureurs du Joos21st M · 6th M35Time12:25:28hPace6.84Cat.M35
- 23*Boulogne-Billancourt22nd M · 10th M23Time12:27:46hPace6.82Cat.M23
- 24CAV23rd M · 11th M23Time12:27:55hPace6.82Cat.M23
- 25*La Brede24th M · 7th M35Time12:30:14hPace6.80Cat.M35
- 26*Guignen25th M · 8th M35Time12:32:03hPace6.78Cat.M35
- 27les Pattes Carbo26th M · 5th M40Time12:32:51hPace6.77Cat.M40
- 28*Artigueloutan27th M · 12th M23Time12:48:58hPace6.63Cat.M23
- 29Extrapédestres28th M · 6th M40Time12:50:49hPace6.62Cat.M40
- 30SOC2nd F · 2nd W23Time12:53:42hPace6.59Cat.W23
- 31Entente Athlétique Sai...29th M · 9th M35Time12:59:24hPace6.54Cat.M35
- 32*Arthez D Asson30th M · 7th M40Time13:00:34hPace6.53Cat.M40
- 33*Pau31st M · 10th M35Time13:07:28hPace6.48Cat.M35
- 34*Gujan-Mestras3rd F · 1st W40Time13:10:33hPace6.45Cat.W40
- 35Krunners32nd M · 3rd M45Time13:10:57hPace6.45Cat.M45
- 36*La Salvetat Saint Gilles33rd M · 13th M23Time13:12:23hPace6.44Cat.M23
- 37*Beaudean34th M · 14th M23Time13:12:28hPace6.44Cat.M23
- 38*Lille35th M · 4th M45Time13:14:19hPace6.42Cat.M45
- 39*Cestas36th M · 11th M35Time13:15:40hPace6.41Cat.M35
- 40FFR - FTR - Terre de R...4th F · 3rd W23Time13:16:13hPace6.41Cat.W23
- 41Sara Korrika37th M · 15th M23Time13:23:54hPace6.34Cat.M23
- 42*Bayonne38th MTime13:26:00hPace6.33
- 43*Montpellier39th M · 16th M23Time13:30:48hPace6.29Cat.M23
- 44Avab TTT40th M · 8th M40Time13:30:51hPace6.29Cat.M40
- 44*Toulouse40th M · 12th M35Time13:30:51hPace6.29Cat.M35
- 46*St Jean Du Castillonais42nd M · 1st M60Time13:31:05hPace6.29Cat.M60
- 47Carcassonne Trail Club43rd M · 13th M35Time13:35:21hPace6.25Cat.M35
- 47XL Raid43rd M · 5th M45Time13:35:21hPace6.25Cat.M45
- 49*Latoue45th M · 9th M40Time13:35:22hPace6.25Cat.M40
- 50Rrunning Saint Paul le...46th M · 10th M40Time13:35:25hPace6.25Cat.M40
Showing ranks 1–50 of 247